KPVD/PVD METAR and TAF weather

Enter ICAO airport designator
Station Type Date Time Source
KPVD METAR 2021/09/28 02:51 UTC NOAA

KPVD 280251Z 22011KT 10SM BKN180 21/14 A2986 RMK AO2 SLP110 T02060144 50004


Station Type Date Time Source
KPVD Decoded METAR 2021/09/28 02:51 UTC NOAA

PROVIDENCE GREEN STATE AIRPORT , RI, United States (KPVD) 41-44N 071-26W 16M
Sep 27, 2021 - 10:51 PM EDT / 2021.09.28 0251 UTC
Wind: from the SW (220 degrees) at 13 MPH (11 KT):0
Visibility: 10 mile(s):0
Sky conditions: mostly cloudy
Temperature: 69.1 F (20.6 C)
Dew Point: 57.9 F (14.4 C)
Relative Humidity: 67%
Pressure (altimeter): 29.86 in. Hg (1011 hPa)
Pressure tendency: 0.01 inches (0.4 hPa) higher than three hours ago
ob: KPVD 280251Z 22011KT 10SM BKN180 21/14 A2986 RMK AO2 SLP110 T02060144 50004
cycle: 3

Station Type Date Time Source
KPVD TAF 2021/09/27 20:18 UTC NOAA

TAF
AMD KPVD 272016Z 2720/2818 22015G20KT P6SM FEW110 SCT250
FM280100 23011G26KT P6SM BKN150
FM280700 23008KT P6SM SCT150
FM281100 23006KT P6SM SCT100
FM281500 26006KT P6SM VCSH BKN050

Example: see airport list